Time;durP1;ratioP1;P1;durP2;ratioP2;P2;SDS_P1;SDS_P2;PMS_P1;PMS_P2;Temp;Humidity;BMP_temperature;BMP_pressure;BME280_temperature;BME280_humidity;BME280_pressure;Samples;Min_cycle;Max_cycle;Signal;HPM_P1;HPM_P2
2024/02/09 00:00:25;;;;;;;3.65;1.20;;;16.30;74.30;;;;;;2434972;57;21516;-68
2024/02/09 00:02:52;;;;;;;5.12;1.65;;;16.30;74.20;;;;;;2215866;56;21046;-69
2024/02/09 00:05:18;;;;;;;7.50;1.30;;;16.40;74.20;;;;;;2215832;56;21014;-69
2024/02/09 00:07:46;;;;;;;4.47;1.50;;;16.40;74.10;;;;;;2216458;57;20978;-68
2024/02/09 00:10:12;;;;;;;5.28;1.35;;;16.30;74.00;;;;;;2436014;56;21006;-69
2024/02/09 00:12:40;;;;;;;5.80;1.30;;;16.30;74.00;;;;;;2438763;56;21867;-69
2024/02/09 00:15:09;;;;;;;3.50;1.20;;;16.30;74.00;;;;;;2218807;56;22048;-69
2024/02/09 00:17:36;;;;;;;5.62;1.12;;;16.40;74.00;;;;;;2436017;56;20985;-70
2024/02/09 00:20:09;;;;;;;3.92;1.35;;;16.30;74.10;;;;;;2215435;57;21258;-69
2024/02/09 00:22:35;;;;;;;2.85;1.20;;;16.30;74.00;;;;;;2436004;56;21227;-69
2024/02/09 00:25:05;;;;;;;4.80;1.20;;;16.40;74.10;;;;;;2219775;57;20946;-68
2024/02/09 00:27:31;;;;;;;7.78;1.58;;;16.30;73.90;;;;;;2216372;57;20986;-68
2024/02/09 00:29:58;;;;;;;2.53;1.00;;;16.30;73.90;;;;;;2219376;57;21022;-69
2024/02/09 00:32:26;;;;;;;3.30;1.02;;;16.30;73.90;;;;;;2223735;57;21796;-70
2024/02/09 00:34:54;;;;;;;4.32;1.33;;;16.30;73.90;;;;;;2218464;57;21002;-71
2024/02/09 00:37:21;;;;;;;4.10;1.30;;;16.30;73.90;;;;;;2219488;56;22015;-69
2024/02/09 00:39:48;;;;;;;6.93;1.15;;;16.20;73.70;;;;;;2216383;57;20978;-68
2024/02/09 00:42:15;;;;;;;4.18;1.20;;;16.20;73.70;;;;;;2216529;57;21022;-68
2024/02/09 00:44:44;;;;;;;4.25;1.27;;;16.20;73.70;;;;;;2216738;56;20966;-69
2024/02/09 00:47:11;;;;;;;7.50;1.30;;;16.20;73.70;;;;;;2216761;56;20962;-69
2024/02/09 00:49:41;;;;;;;5.25;1.40;;;16.20;73.70;;;;;;2220100;57;21847;-68
2024/02/09 00:52:08;;;;;;;3.42;0.95;;;16.20;73.70;;;;;;2215502;56;21294;-68
2024/02/09 00:54:36;;;;;;;3.62;0.88;;;16.10;73.60;;;;;;2215941;56;21024;-71
2024/02/09 00:57:05;;;;;;;4.47;1.30;;;16.10;73.80;;;;;;2216489;56;21483;-70
2024/02/09 00:59:33;;;;;;;4.55;1.42;;;16.10;73.80;;;;;;2216625;57;21502;-69
2024/02/09 01:02:01;;;;;;;5.25;1.00;;;16.10;73.80;;;;;;2435496;57;21058;-70
2024/02/09 01:04:30;;;;;;;4.25;1.17;;;16.10;73.90;;;;;;2435879;56;21057;-70
2024/02/09 01:06:56;;;;;;;3.62;1.20;;;16.10;74.00;;;;;;2216783;57;20974;-70
2024/02/09 01:09:23;;;;;;;2.42;0.90;;;16.00;73.90;;;;;;2216066;56;21328;-69
2024/02/09 01:11:50;;;;;;;5.95;1.25;;;16.00;74.00;;;;;;2216452;57;21239;-72
2024/02/09 02:45:00;;;;;;;3.80;1.65;;;15.30;74.70;;;;;;2435419;56;21306;-70
2024/02/09 02:47:29;;;;;;;4.50;1.80;;;15.30;74.70;;;;;;2215869;56;21041;-70
2024/02/09 03:06:24;;;;;;;3.30;1.45;;;15.40;74.90;;;;;;2435309;56;20954;-68
2024/02/09 03:08:51;;;;;;;4.22;1.90;;;15.40;74.80;;;;;;2215908;56;21045;-69
2024/02/09 03:11:17;;;;;;;4.43;1.60;;;15.40;74.80;;;;;;2216127;56;20938;-69
2024/02/09 03:13:44;;;;;;;5.40;1.80;;;15.50;74.90;;;;;;2435977;56;21010;-68
2024/02/09 03:16:16;;;;;;;5.28;1.60;;;15.40;74.60;;;;;;2219831;56;21010;-69
2024/02/09 03:18:44;;;;;;;3.83;1.90;;;15.50;74.60;;;;;;2217000;56;21029;-69
2024/02/09 03:21:16;;;;;;;4.75;1.98;;;15.50;74.70;;;;;;2434772;56;21725;-69
2024/02/09 03:23:42;;;;;;;3.45;1.80;;;15.50;74.60;;;;;;2438750;56;20998;-68
2024/02/09 03:26:09;;;;;;;5.57;1.75;;;15.50;74.60;;;;;;2433662;56;21453;-68
2024/02/09 03:28:35;;;;;;;6.87;2.60;;;15.50;74.70;;;;;;2216489;56;20994;-69
2024/02/09 03:31:03;;;;;;;4.00;1.58;;;15.50;74.60;;;;;;2216332;57;20962;-70
2024/02/09 03:33:31;;;;;;;5.47;1.98;;;15.50;74.70;;;;;;2215725;56;20967;-70
2024/02/09 03:35:57;;;;;;;3.47;1.62;;;15.50;74.60;;;;;;2216314;57;20925;-70
2024/02/09 03:38:26;;;;;;;4.00;1.77;;;15.60;74.60;;;;;;2215155;56;21025;-69
2024/02/09 03:40:55;;;;;;;5.15;1.50;;;15.60;74.70;;;;;;2216345;57;21034;-71
2024/02/09 03:43:22;;;;;;;5.43;1.45;;;15.60;74.60;;;;;;2434388;56;21374;-68
2024/02/09 03:45:49;;;;;;;3.30;1.50;;;15.60;74.60;;;;;;2216707;57;21017;-68
2024/02/09 03:48:15;;;;;;;4.35;1.73;;;15.60;74.40;;;;;;2435438;56;21033;-67
2024/02/09 03:50:42;;;;;;;7.32;1.80;;;15.60;74.30;;;;;;2219123;57;20998;-69
2024/02/09 03:53:12;;;;;;;3.95;1.65;;;15.60;74.30;;;;;;2216547;57;21049;-68
2024/02/09 03:55:39;;;;;;;4.87;1.77;;;15.60;74.20;;;;;;2216540;56;21014;-69
2024/02/09 03:58:06;;;;;;;4.93;1.75;;;15.60;74.20;;;;;;2216364;57;21093;-67
2024/02/09 04:00:33;;;;;;;4.80;1.30;;;15.70;74.20;;;;;;2215778;57;21105;-69
2024/02/09 04:03:00;;;;;;;5.43;1.48;;;15.70;74.20;;;;;;2219011;56;20978;-69
2024/02/09 04:05:26;;;;;;;4.82;1.37;;;15.70;74.00;;;;;;2435169;56;20993;-69
2024/02/09 04:07:55;;;;;;;3.92;1.60;;;15.70;73.90;;;;;;2216557;57;20945;-69
2024/02/09 04:10:21;;;;;;;3.05;1.37;;;15.70;74.00;;;;;;2216048;57;20962;-68
2024/02/09 04:12:50;;;;;;;4.65;1.50;;;15.70;74.60;;;;;;2217115;57;21029;-70
2024/02/09 04:15:16;;;;;;;3.22;1.45;;;15.70;73.80;;;;;;2435168;56;20978;-69
2024/02/09 04:17:44;;;;;;;6.78;1.60;;;15.80;73.80;;;;;;2216554;57;20957;-69
2024/02/09 04:20:11;;;;;;;3.53;1.35;;;15.70;73.50;;;;;;2216447;57;20990;-70
2024/02/09 04:22:38;;;;;;;3.97;1.50;;;15.70;73.70;;;;;;2435937;56;21002;-68
2024/02/09 04:25:05;;;;;;;5.55;1.50;;;15.70;73.80;;;;;;2436393;56;21391;-68
2024/02/09 04:27:31;;;;;;;6.93;1.77;;;15.70;73.70;;;;;;2216188;57;21041;-69
2024/02/09 04:29:57;;;;;;;5.07;1.50;;;15.80;73.70;;;;;;2215820;57;21030;-71
2024/02/09 04:32:24;;;;;;;6.80;1.20;;;15.70;73.60;;;;;;2215572;57;20948;-67
2024/02/09 04:34:51;;;;;;;3.67;1.30;;;15.80;73.60;;;;;;2435804;56;21732;-69
2024/02/09 04:37:21;;;;;;;5.18;1.30;;;15.80;73.70;;;;;;2215735;56;20993;-68
2024/02/09 04:39:48;;;;;;;3.60;1.52;;;15.80;73.60;;;;;;2435663;56;21046;-67
2024/02/09 04:42:14;;;;;;;3.10;1.10;;;15.80;73.60;;;;;;2216236;57;20978;-68
2024/02/09 04:44:41;;;;;;;4.25;1.00;;;15.80;73.50;;;;;;2441638;55;21017;-69
2024/02/09 04:47:07;;;;;;;4.53;1.15;;;15.80;73.60;;;;;;2225141;57;20961;-70
2024/02/09 04:49:34;;;;;;;3.35;1.20;;;15.80;73.60;;;;;;2225218;56;21777;-71
2024/02/09 04:52:01;;;;;;;3.65;1.02;;;15.80;73.50;;;;;;2435440;56;21869;-69
2024/02/09 04:54:27;;;;;;;4.28;1.33;;;15.80;73.50;;;;;;2216475;57;21033;-70
2024/02/09 04:56:54;;;;;;;3.42;1.25;;;15.80;73.50;;;;;;2216108;57;20918;-70
2024/02/09 04:59:20;;;;;;;3.83;1.40;;;15.80;73.40;;;;;;2216402;57;21045;-70
2024/02/09 05:01:48;;;;;;;5.28;1.48;;;15.80;73.40;;;;;;2215783;56;20981;-68
2024/02/09 05:04:17;;;;;;;2.83;1.10;;;15.80;73.40;;;;;;2435325;56;21062;-69
2024/02/09 05:06:43;;;;;;;4.22;1.30;;;15.80;73.40;;;;;;2216218;56;21519;-69
2024/02/09 05:09:11;;;;;;;3.20;1.30;;;15.80;73.30;;;;;;2435267;56;20961;-68
2024/02/09 05:11:38;;;;;;;3.67;1.20;;;15.80;73.20;;;;;;2215693;56;21310;-67
2024/02/09 05:14:07;;;;;;;4.50;1.37;;;15.80;73.30;;;;;;2215515;57;20982;-69
2024/02/09 05:16:36;;;;;;;5.68;1.85;;;15.80;72.90;;;;;;2435166;56;20998;-68
2024/02/09 05:19:03;;;;;;;3.87;1.20;;;15.80;72.90;;;;;;2216177;57;21014;-67
2024/02/09 05:21:29;;;;;;;3.95;1.10;;;15.80;73.00;;;;;;2435867;56;21013;-68
2024/02/09 05:23:55;;;;;;;4.72;1.20;;;15.80;73.00;;;;;;2216671;56;20966;-69
2024/02/09 05:26:22;;;;;;;3.62;1.55;;;15.90;72.90;;;;;;2216420;57;21432;-69
2024/02/09 05:28:48;;;;;;;3.83;1.20;;;15.80;72.90;;;;;;2435423;56;20994;-68
2024/02/09 05:31:16;;;;;;;3.83;1.30;;;15.80;72.90;;;;;;2215756;56;21366;-67
2024/02/09 05:33:44;;;;;;;2.58;1.23;;;15.90;73.00;;;;;;2215939;57;21809;-68
2024/02/09 05:36:23;;;;;;;4.20;1.08;;;15.80;72.90;;;;;;2219706;57;21887;-68
2024/02/09 05:38:50;;;;;;;3.37;1.37;;;15.90;72.40;;;;;;2435387;56;21443;-68
2024/02/09 05:41:17;;;;;;;3.30;1.10;;;15.80;72.90;;;;;;2216210;57;20993;-69
2024/02/09 05:43:45;;;;;;;2.30;0.98;;;15.80;73.00;;;;;;2434740;56;21005;-69
2024/02/09 05:46:11;;;;;;;3.33;1.00;;;15.80;72.90;;;;;;2216253;57;20985;-68
2024/02/09 05:48:42;;;;;;;4.05;1.23;;;15.90;73.10;;;;;;2218781;57;20989;-68
2024/02/09 05:51:12;;;;;;;3.58;1.23;;;15.80;72.50;;;;;;2215709;57;21210;-71
2024/02/09 05:53:40;;;;;;;2.92;1.40;;;15.90;72.60;;;;;;2215766;57;20957;-70
2024/02/09 05:56:19;;;;;;;3.17;1.15;;;15.80;72.90;;;;;;2435181;56;20966;-67
2024/02/09 05:58:51;;;;;;;3.60;1.40;;;15.90;72.30;;;;;;2226023;56;21002;-68
2024/02/09 06:01:20;;;;;;;4.28;1.40;;;15.90;73.00;;;;;;2212252;56;20961;-69
2024/02/09 06:03:47;;;;;;;2.87;1.30;;;15.90;73.00;;;;;;2434116;56;20982;-68
2024/02/09 06:06:20;;;;;;;3.95;1.33;;;15.90;73.10;;;;;;2216366;56;21314;-68
2024/02/09 06:08:49;;;;;;;2.97;0.95;;;15.90;73.00;;;;;;2215458;56;20993;-69
2024/02/09 06:11:19;;;;;;;3.28;1.37;;;15.90;72.90;;;;;;2216121;56;21891;-69
2024/02/09 06:13:45;;;;;;;4.53;1.15;;;15.90;72.80;;;;;;2215650;56;20973;-68
2024/02/09 06:16:15;;;;;;;3.95;1.37;;;15.90;73.00;;;;;;2435763;56;20962;-68
2024/02/09 06:18:45;;;;;;;3.47;1.20;;;15.90;72.80;;;;;;2215980;56;20965;-70
2024/02/09 06:21:16;;;;;;;4.78;1.62;;;15.90;72.90;;;;;;2216451;56;21860;-70
2024/02/09 06:23:44;;;;;;;4.10;1.50;;;15.80;72.60;;;;;;2434835;56;20966;-70
2024/02/09 06:26:11;;;;;;;4.03;1.60;;;15.80;72.70;;;;;;2216713;56;21491;-69
2024/02/09 06:28:38;;;;;;;3.90;1.20;;;15.80;72.70;;;;;;2435176;56;20957;-68
2024/02/09 06:31:04;;;;;;;4.05;1.60;;;15.80;72.60;;;;;;2435903;56;21018;-70
2024/02/09 06:33:31;;;;;;;3.50;1.30;;;15.80;72.60;;;;;;2216846;57;20957;-67
2024/02/09 06:35:58;;;;;;;5.30;1.27;;;15.70;72.60;;;;;;2436226;56;20992;-68
2024/02/09 06:38:25;;;;;;;5.03;1.83;;;15.70;72.60;;;;;;2436246;56;21397;-68
2024/02/09 06:40:53;;;;;;;4.70;1.55;;;15.70;72.60;;;;;;2216544;57;21459;-67
2024/02/09 06:43:21;;;;;;;4.68;1.50;;;15.70;72.70;;;;;;2217188;57;21824;-69
2024/02/09 06:45:50;;;;;;;4.80;1.40;;;15.60;72.60;;;;;;2436331;56;21526;-68
2024/02/09 06:48:17;;;;;;;4.30;1.70;;;15.60;72.70;;;;;;2435916;56;21002;-68
2024/02/09 06:50:44;;;;;;;4.10;1.77;;;15.60;72.80;;;;;;2216881;56;20949;-69
2024/02/09 06:53:11;;;;;;;3.65;1.35;;;15.60;72.70;;;;;;2436388;56;20962;-68
2024/02/09 06:55:37;;;;;;;5.30;1.60;;;15.60;72.70;;;;;;2436342;56;21042;-67
2024/02/09 06:58:07;;;;;;;7.22;1.60;;;15.60;72.70;;;;;;2437523;56;21054;-68
2024/02/09 07:00:36;;;;;;;4.28;1.45;;;15.60;72.80;;;;;;2438449;56;20949;-68
2024/02/09 07:03:05;;;;;;;4.50;2.08;;;15.60;72.60;;;;;;2415332;57;20923;-69
2024/02/09 07:05:35;;;;;;;4.90;2.20;;;15.60;72.60;;;;;;2217027;57;20984;-69
2024/02/09 07:08:03;;;;;;;4.50;1.60;;;15.60;72.80;;;;;;2216721;57;21010;-68
2024/02/09 07:10:30;;;;;;;3.10;1.33;;;15.60;72.90;;;;;;2216795;57;21534;-70
2024/02/09 07:12:57;;;;;;;6.97;1.60;;;15.60;72.90;;;;;;2220398;57;20994;-69
2024/02/09 07:15:23;;;;;;;3.45;1.23;;;15.50;72.80;;;;;;2216818;57;21041;-70
2024/02/09 07:17:50;;;;;;;3.17;1.35;;;15.50;72.80;;;;;;2220481;57;20958;-68
2024/02/09 07:20:17;;;;;;;5.28;1.50;;;15.60;72.90;;;;;;2216449;56;20970;-69
2024/02/09 07:22:45;;;;;;;3.72;1.45;;;15.60;73.00;;;;;;2217132;57;21042;-68
2024/02/09 07:25:12;;;;;;;4.80;1.50;;;15.60;73.00;;;;;;2436902;57;21447;-70
2024/02/09 07:27:38;;;;;;;4.97;1.25;;;15.60;73.00;;;;;;2216165;56;21534;-69
2024/02/09 07:30:17;;;;;;;5.07;1.33;;;15.60;73.00;;;;;;2217225;56;20958;-68
2024/02/09 07:32:43;;;;;;;6.07;1.40;;;15.60;72.60;;;;;;2216629;57;21017;-70
2024/02/09 07:35:10;;;;;;;4.28;1.33;;;15.60;73.10;;;;;;2216690;57;21053;-69
2024/02/09 07:37:38;;;;;;;4.68;1.50;;;15.60;73.20;;;;;;2436752;56;20966;-68
2024/02/09 07:40:09;;;;;;;3.92;1.35;;;15.60;73.00;;;;;;2217045;56;20976;-68
2024/02/09 07:42:35;;;;;;;2.75;1.23;;;15.60;73.20;;;;;;2205099;58;21088;-69
2024/02/09 07:45:05;;;;;;;3.45;1.20;;;15.70;73.30;;;;;;2220026;56;21035;-67
2024/02/09 07:47:31;;;;;;;3.03;1.10;;;15.70;73.40;;;;;;2216819;57;21015;-68
2024/02/09 07:49:58;;;;;;;5.03;1.12;;;15.70;73.50;;;;;;2434656;56;21013;-69
2024/02/09 07:52:29;;;;;;;3.33;1.05;;;15.70;73.40;;;;;;2217041;56;21283;-68
2024/02/09 07:54:55;;;;;;;2.58;0.85;;;15.70;73.30;;;;;;2436260;56;20985;-68
2024/02/09 07:57:21;;;;;;;3.75;0.95;;;15.80;73.40;;;;;;2219833;57;21281;-69
2024/02/09 07:59:49;;;;;;;4.05;1.67;;;15.80;73.50;;;;;;2216041;57;21298;-68
2024/02/09 08:02:18;;;;;;;3.97;1.10;;;15.80;73.40;;;;;;2436204;56;21009;-69
2024/02/09 08:04:45;;;;;;;3.53;1.10;;;15.80;73.40;;;;;;2435888;56;20969;-67
2024/02/09 08:07:13;;;;;;;3.00;1.30;;;15.80;73.20;;;;;;2436259;56;21065;-70
2024/02/09 08:09:44;;;;;;;2.25;1.05;;;15.90;73.30;;;;;;2217264;57;21025;-69
2024/02/09 08:12:12;;;;;;;3.80;1.37;;;15.90;73.50;;;;;;2438355;55;20986;-69
2024/02/09 08:14:39;;;;;;;3.25;1.15;;;15.90;73.40;;;;;;2220221;56;21065;-69
2024/02/09 08:17:05;;;;;;;5.35;1.42;;;15.90;73.40;;;;;;2216526;57;21005;-68
2024/02/09 08:19:35;;;;;;;5.07;1.42;;;15.90;73.50;;;;;;2435631;57;21260;-69
2024/02/09 08:22:04;;;;;;;3.90;1.12;;;16.00;73.60;;;;;;2435337;57;20938;-70
2024/02/09 08:24:31;;;;;;;2.58;1.00;;;16.00;73.30;;;;;;2216190;57;20996;-69
2024/02/09 08:26:57;;;;;;;3.87;1.00;;;16.00;73.50;;;;;;2215424;57;21116;-68
2024/02/09 08:29:24;;;;;;;3.47;1.60;;;16.10;73.50;;;;;;2215939;57;20985;-69
2024/02/09 08:31:50;;;;;;;3.03;1.25;;;16.10;73.40;;;;;;2435016;56;21725;-69
2024/02/09 08:34:17;;;;;;;3.62;1.30;;;16.20;73.50;;;;;;2216500;57;21578;-68
2024/02/09 08:36:44;;;;;;;4.40;1.25;;;16.20;73.50;;;;;;2435387;56;21002;-68
2024/02/09 08:39:10;;;;;;;4.97;1.33;;;16.20;73.70;;;;;;2216680;57;21069;-68
2024/02/09 08:41:37;;;;;;;4.32;1.40;;;16.20;73.50;;;;;;2435374;56;20938;-71
2024/02/09 08:44:04;;;;;;;3.05;1.25;;;16.20;73.40;;;;;;2434767;56;21072;-69
2024/02/09 08:46:30;;;;;;;4.53;1.25;;;16.30;73.40;;;;;;2216414;56;21769;-69
2024/02/09 08:48:57;;;;;;;3.35;0.90;;;16.30;73.30;;;;;;2217371;56;20978;-68
2024/02/09 08:51:24;;;;;;;3.70;1.30;;;16.40;73.50;;;;;;2435235;56;20969;-70
2024/02/09 08:53:50;;;;;;;2.70;1.12;;;16.40;73.40;;;;;;2434415;56;21042;-68
2024/02/09 08:56:16;;;;;;;4.60;1.55;;;16.40;73.40;;;;;;2219518;56;21909;-70
2024/02/09 08:58:47;;;;;;;4.87;1.30;;;16.40;73.30;;;;;;2434475;56;20938;-66
2024/02/09 09:01:13;;;;;;;4.75;1.45;;;16.50;73.30;;;;;;2215140;57;21017;-70
2024/02/09 09:03:42;;;;;;;2.90;1.17;;;16.40;73.10;;;;;;2435329;56;21574;-68
2024/02/09 09:06:12;;;;;;;6.03;2.50;;;16.60;72.90;;;;;;2434982;56;21041;-69
2024/02/09 09:08:38;;;;;;;4.40;1.65;;;16.50;72.50;;;;;;2435568;56;20994;-69
2024/02/09 09:11:06;;;;;;;6.20;2.30;;;16.60;73.10;;;;;;2435369;56;20965;-68
2024/02/09 09:13:32;;;;;;;5.93;3.05;;;16.60;73.10;;;;;;2223101;57;20965;-69
2024/02/09 09:15:58;;;;;;;7.30;3.15;;;16.60;73.10;;;;;;2222147;57;21536;-70
2024/02/09 09:18:27;;;;;;;7.32;2.90;;;16.70;72.90;;;;;;2435307;56;21318;-69
2024/02/09 09:20:53;;;;;;;6.75;3.22;;;16.70;73.60;;;;;;2222349;57;21025;-69
2024/02/09 09:23:25;;;;;;;5.85;2.55;;;16.70;72.80;;;;;;2216351;57;20946;-69
2024/02/09 09:25:54;;;;;;;4.43;2.22;;;16.80;72.50;;;;;;2218840;57;21011;-69
2024/02/09 09:28:21;;;;;;;5.47;1.80;;;16.80;72.40;;;;;;2217709;57;21343;-70
2024/02/09 09:30:47;;;;;;;4.37;1.70;;;16.80;72.90;;;;;;2215690;57;21022;-67
2024/02/09 09:33:13;;;;;;;4.87;2.00;;;16.90;72.80;;;;;;2216171;56;21385;-68
2024/02/09 09:35:40;;;;;;;5.68;2.45;;;16.90;72.90;;;;;;2219918;56;21502;-68
2024/02/09 09:38:07;;;;;;;5.93;2.80;;;16.90;72.90;;;;;;2434723;56;21535;-69
2024/02/09 09:40:35;;;;;;;5.28;2.10;;;16.90;72.70;;;;;;2216149;56;21816;-68
2024/02/09 09:43:02;;;;;;;3.83;1.70;;;16.90;72.60;;;;;;2434875;56;21847;-68
2024/02/09 09:45:29;;;;;;;4.65;1.92;;;17.00;72.70;;;;;;2435098;56;21022;-69
2024/02/09 09:47:56;;;;;;;3.40;1.42;;;17.00;72.30;;;;;;2215853;57;21022;-69
2024/02/09 09:50:24;;;;;;;4.55;1.45;;;17.00;72.30;;;;;;2216107;56;20998;-68
2024/02/09 09:52:53;;;;;;;4.10;1.52;;;17.00;72.30;;;;;;2215598;56;21369;-70
2024/02/09 09:55:22;;;;;;;4.22;1.58;;;17.10;72.10;;;;;;2216385;56;20962;-69
2024/02/09 09:57:49;;;;;;;4.53;1.48;;;17.10;72.20;;;;;;2216237;56;21078;-67
2024/02/09 10:00:16;;;;;;;3.45;1.37;;;17.20;72.20;;;;;;2215890;57;21026;-67
2024/02/09 10:02:43;;;;;;;5.80;1.80;;;17.10;72.10;;;;;;2435756;56;20973;-70
2024/02/09 10:05:10;;;;;;;3.80;1.35;;;17.20;72.40;;;;;;2215262;56;21030;-69
2024/02/09 10:07:40;;;;;;;3.92;1.10;;;17.20;72.20;;;;;;2219561;57;21097;-67
2024/02/09 10:10:10;;;;;;;4.20;1.50;;;17.20;72.10;;;;;;2215383;57;20925;-70
2024/02/09 10:12:39;;;;;;;3.33;1.33;;;17.20;71.70;;;;;;2216308;57;20990;-70
2024/02/09 10:15:06;;;;;;;3.40;1.20;;;17.40;71.90;;;;;;2434755;56;21048;-70
2024/02/09 10:17:35;;;;;;;3.75;1.58;;;17.20;72.00;;;;;;2216501;56;21219;-69
2024/02/09 10:20:03;;;;;;;2.75;1.27;;;17.40;72.10;;;;;;2434743;57;21029;-70
2024/02/09 10:22:30;;;;;;;2.83;1.23;;;17.30;72.20;;;;;;2435485;56;21006;-70
2024/02/09 10:24:58;;;;;;;3.70;1.20;;;17.30;72.90;;;;;;2215138;56;20973;-69
2024/02/09 10:27:25;;;;;;;2.58;1.15;;;17.30;72.00;;;;;;2210809;57;20973;-68
2024/02/09 10:29:51;;;;;;;4.05;1.10;;;17.40;72.00;;;;;;2214218;57;21041;-68
2024/02/09 10:32:18;;;;;;;2.45;1.08;;;17.40;71.90;;;;;;2216286;57;21037;-68
2024/02/09 10:34:44;;;;;;;3.20;1.17;;;17.40;72.00;;;;;;2435710;56;21796;-69
2024/02/09 10:37:10;;;;;;;3.75;1.20;;;17.40;72.10;;;;;;2216327;57;21111;-68
2024/02/09 10:39:39;;;;;;;5.03;1.20;;;17.40;71.90;;;;;;2216530;56;20958;-68
2024/02/09 10:42:08;;;;;;;3.92;1.20;;;17.50;72.10;;;;;;2219239;57;20965;-68
2024/02/09 10:44:35;;;;;;;4.35;1.40;;;17.50;72.00;;;;;;2221365;57;21508;-68
2024/02/09 10:47:01;;;;;;;2.95;1.00;;;17.50;71.80;;;;;;2435202;56;20982;-68
2024/02/09 10:49:29;;;;;;;2.58;0.95;;;17.50;71.80;;;;;;2435719;56;21057;-69
2024/02/09 10:52:00;;;;;;;3.75;1.15;;;17.50;71.80;;;;;;2434766;56;21547;-68
2024/02/09 10:54:31;;;;;;;3.20;1.00;;;17.60;71.70;;;;;;2435791;56;21466;-68
2024/02/09 10:56:57;;;;;;;4.10;1.42;;;17.60;71.50;;;;;;2436000;56;20978;-68
2024/02/09 10:59:24;;;;;;;2.75;0.90;;;17.60;72.10;;;;;;2435259;56;21121;-69
2024/02/09 11:01:51;;;;;;;4.00;1.10;;;17.60;72.10;;;;;;2219400;56;20993;-68
2024/02/09 11:04:17;;;;;;;2.83;1.00;;;17.60;72.00;;;;;;2215986;56;20949;-69
2024/02/09 11:06:43;;;;;;;3.78;1.20;;;17.60;72.00;;;;;;2435017;56;20974;-68
2024/02/09 11:09:10;;;;;;;2.62;0.90;;;17.70;72.10;;;;;;2215600;57;21004;-69
2024/02/09 11:11:38;;;;;;;3.42;1.10;;;17.60;71.90;;;;;;2215968;56;21460;-67
2024/02/09 11:14:09;;;;;;;2.33;0.93;;;17.70;71.70;;;;;;2215772;56;21500;-70
2024/02/09 11:16:46;;;;;;;3.22;1.10;;;17.70;72.00;;;;;;2215781;56;21516;-69
2024/02/09 11:19:14;;;;;;;4.50;1.30;;;17.70;70.90;;;;;;2435483;56;21471;-69
2024/02/09 11:22:13;;;;;;;4.18;1.20;;;17.70;71.90;;;;;;2216386;56;20969;-70
2024/02/09 11:24:45;;;;;;;4.80;1.00;;;17.70;69.60;;;;;;2212687;56;21593;-70
2024/02/09 11:27:12;;;;;;;2.87;1.08;;;17.70;71.50;;;;;;2212280;56;20945;-70
2024/02/09 11:29:38;;;;;;;2.60;0.95;;;17.70;72.00;;;;;;2431240;56;20984;-70
2024/02/09 11:32:05;;;;;;;3.25;1.08;;;17.70;72.80;;;;;;2431156;56;20966;-70
2024/02/09 11:34:34;;;;;;;4.03;1.20;;;17.70;72.20;;;;;;2220150;57;21030;-69
2024/02/09 11:37:00;;;;;;;3.87;1.30;;;17.70;71.90;;;;;;2439121;56;21331;-67
2024/02/09 11:39:27;;;;;;;1.85;0.80;;;17.70;72.10;;;;;;2217052;56;21455;-70
2024/02/09 11:41:53;;;;;;;4.05;1.05;;;17.70;72.10;;;;;;2434990;56;20958;-68
2024/02/09 11:44:21;;;;;;;5.53;1.02;;;17.70;72.20;;;;;;2435178;56;21415;-69
2024/02/09 11:46:48;;;;;;;3.83;1.60;;;17.70;72.20;;;;;;2216300;57;20946;-68
2024/02/09 11:49:14;;;;;;;3.03;1.12;;;17.70;72.30;;;;;;2218596;57;21062;-68
2024/02/09 11:51:44;;;;;;;4.03;1.30;;;17.70;72.40;;;;;;2435405;56;21454;-68
2024/02/09 11:54:10;;;;;;;3.72;1.35;;;17.70;72.40;;;;;;2216040;57;20990;-70
2024/02/09 11:56:37;;;;;;;3.90;1.40;;;17.70;72.40;;;;;;2224103;56;20989;-69
2024/02/09 11:59:04;;;;;;;4.05;1.33;;;17.70;72.30;;;;;;2218120;57;21455;-68
2024/02/09 12:01:30;;;;;;;4.25;1.17;;;17.70;72.30;;;;;;2215644;57;20981;-71
2024/02/09 12:03:56;;;;;;;3.78;1.37;;;17.70;72.40;;;;;;2218780;56;21054;-68
2024/02/09 12:06:29;;;;;;;3.75;1.17;;;17.70;72.20;;;;;;2215442;56;22184;-70
2024/02/09 12:08:56;;;;;;;2.75;1.10;;;17.70;71.70;;;;;;2434740;56;21568;-68
2024/02/09 12:11:22;;;;;;;4.25;1.20;;;17.80;72.10;;;;;;2219141;57;21224;-70
2024/02/09 12:13:49;;;;;;;4.65;1.20;;;17.70;72.10;;;;;;2435455;56;20967;-68
2024/02/09 12:16:18;;;;;;;5.37;1.27;;;17.70;72.20;;;;;;2435085;56;20954;-70
2024/02/09 12:18:45;;;;;;;4.45;1.30;;;17.80;72.10;;;;;;2220560;56;21007;-70
2024/02/09 12:21:12;;;;;;;3.05;1.40;;;17.80;72.60;;;;;;2216708;56;20970;-69
2024/02/09 12:23:38;;;;;;;3.87;1.27;;;17.80;72.40;;;;;;2215593;56;20982;-70
2024/02/09 12:26:08;;;;;;;3.20;1.30;;;17.80;72.40;;;;;;2215569;56;20966;-69
2024/02/09 12:28:35;;;;;;;3.58;1.27;;;17.80;72.50;;;;;;2216386;57;20954;-68
2024/02/09 12:31:05;;;;;;;4.60;1.30;;;17.80;72.50;;;;;;2220217;57;20954;-69
2024/02/09 12:33:35;;;;;;;1.95;0.80;;;17.80;72.10;;;;;;2216082;56;21207;-70
2024/02/09 12:36:08;;;;;;;3.35;1.00;;;17.80;72.60;;;;;;2434813;56;22126;-68
2024/02/09 12:38:38;;;;;;;2.97;1.12;;;17.90;72.10;;;;;;2215896;57;21466;-69
2024/02/09 12:41:05;;;;;;;2.85;1.10;;;17.90;72.30;;;;;;2435255;56;21030;-68
2024/02/09 12:43:35;;;;;;;4.95;1.40;;;17.90;72.30;;;;;;2435723;56;20969;-69
2024/02/09 12:46:02;;;;;;;3.12;1.00;;;17.90;72.40;;;;;;2215886;57;22334;-70
2024/02/09 12:48:28;;;;;;;2.62;1.05;;;17.90;72.40;;;;;;2215823;56;21896;-70
2024/02/09 12:50:58;;;;;;;3.87;1.00;;;17.90;72.70;;;;;;2215005;57;21073;-68
2024/02/09 12:53:25;;;;;;;3.60;1.17;;;17.90;72.40;;;;;;2216068;56;20962;-70
2024/02/09 12:55:51;;;;;;;3.45;0.90;;;17.90;72.80;;;;;;2215766;57;21104;-68
2024/02/09 12:58:20;;;;;;;5.05;1.60;;;18.00;73.00;;;;;;2215831;57;20954;-68
2024/02/09 13:00:48;;;;;;;2.92;1.00;;;17.90;72.80;;;;;;2219730;57;20989;-70
2024/02/09 13:03:17;;;;;;;2.83;1.10;;;18.00;72.80;;;;;;2435309;56;20958;-68
2024/02/09 13:05:44;;;;;;;2.42;1.08;;;18.00;72.30;;;;;;2215359;57;20982;-68
2024/02/09 13:08:11;;;;;;;3.00;1.15;;;18.00;72.60;;;;;;2215839;57;20981;-68
2024/02/09 13:10:38;;;;;;;3.60;0.90;;;18.00;72.70;;;;;;2435641;56;20994;-69
2024/02/09 13:13:07;;;;;;;3.60;1.02;;;18.00;72.70;;;;;;2436146;56;20942;-68
2024/02/09 13:15:34;;;;;;;2.00;0.90;;;18.00;72.50;;;;;;2216250;56;21431;-70
2024/02/09 13:18:08;;;;;;;1.98;0.82;;;18.00;72.50;;;;;;2434686;56;20989;-68
2024/02/09 13:20:37;;;;;;;2.80;0.90;;;18.00;72.10;;;;;;2218733;57;20981;-68
2024/02/09 13:23:04;;;;;;;2.30;1.00;;;18.10;72.60;;;;;;2215138;57;22203;-69
2024/02/09 13:25:35;;;;;;;3.05;1.10;;;18.10;72.60;;;;;;2219843;56;21108;-69
2024/02/09 13:28:04;;;;;;;2.42;0.95;;;18.10;72.60;;;;;;2219389;57;21595;-68
2024/02/09 13:30:30;;;;;;;2.67;0.90;;;18.10;72.50;;;;;;2218014;57;20997;-68
2024/02/09 13:32:57;;;;;;;2.35;0.90;;;18.10;72.30;;;;;;2218579;57;20970;-68
2024/02/09 13:35:24;;;;;;;3.25;1.10;;;18.10;72.40;;;;;;2219450;57;20998;-68
2024/02/09 13:37:50;;;;;;;3.85;1.15;;;18.10;72.60;;;;;;2221072;57;21444;-68
2024/02/09 13:40:18;;;;;;;3.05;1.00;;;18.10;72.30;;;;;;2222173;57;21443;-69
2024/02/09 13:42:47;;;;;;;4.25;1.00;;;18.10;72.50;;;;;;2214617;57;21365;-69
2024/02/09 13:45:25;;;;;;;2.25;0.85;;;18.10;72.60;;;;;;2433127;56;20942;-69
2024/02/09 13:47:55;;;;;;;2.50;1.00;;;18.10;72.20;;;;;;2215639;56;21034;-69
2024/02/09 13:50:25;;;;;;;2.78;0.95;;;18.10;72.60;;;;;;2215312;56;21032;-68
2024/02/09 13:52:56;;;;;;;3.15;1.10;;;18.10;72.50;;;;;;2215819;56;20941;-71
2024/02/09 13:55:22;;;;;;;3.78;1.10;;;18.10;72.50;;;;;;2218994;56;20994;-70
2024/02/09 13:57:52;;;;;;;4.10;1.27;;;18.10;72.50;;;;;;2220772;56;21531;-69
2024/02/09 14:00:24;;;;;;;3.10;1.30;;;18.10;72.40;;;;;;2436831;56;21017;-69
2024/02/09 14:02:50;;;;;;;3.70;1.20;;;18.10;72.10;;;;;;2435562;56;20969;-69
2024/02/09 14:05:19;;;;;;;3.25;1.08;;;18.10;72.50;;;;;;2435078;57;20961;-68
2024/02/09 14:07:46;;;;;;;3.70;1.05;;;18.10;71.90;;;;;;2434803;56;21057;-69
2024/02/09 14:10:13;;;;;;;2.35;0.90;;;18.00;72.20;;;;;;2434172;56;21045;-68
2024/02/09 14:12:39;;;;;;;4.20;0.93;;;18.00;72.30;;;;;;2435639;56;21001;-69
2024/02/09 14:15:09;;;;;;;2.62;0.90;;;18.00;72.30;;;;;;2434397;56;21027;-70
2024/02/09 14:17:35;;;;;;;2.65;1.08;;;18.00;72.20;;;;;;2214789;57;20986;-68
2024/02/09 14:20:02;;;;;;;4.22;1.12;;;18.00;72.20;;;;;;2434612;56;20987;-69
2024/02/09 14:22:29;;;;;;;3.60;0.95;;;18.00;72.20;;;;;;2435127;57;21594;-69
2024/02/09 14:24:58;;;;;;;1.90;0.65;;;17.90;72.00;;;;;;2219650;56;20966;-68
2024/02/09 14:27:25;;;;;;;3.35;1.10;;;17.90;71.90;;;;;;2215348;56;20971;-68
2024/02/09 14:29:52;;;;;;;3.83;1.20;;;17.90;71.60;;;;;;2215148;57;21764;-70
2024/02/09 14:32:18;;;;;;;2.62;1.17;;;17.90;71.50;;;;;;2216047;57;20989;-69
2024/02/09 14:34:45;;;;;;;3.33;1.20;;;17.80;71.50;;;;;;2435495;56;21057;-69
2024/02/09 14:37:12;;;;;;;3.22;1.30;;;17.80;71.40;;;;;;2434983;56;21006;-69